createdAt,value
2022-12-12T00:01:22.590Z,0.90
2022-12-12T00:03:55.153Z,0.90
2022-12-12T00:06:25.140Z,0.90
2022-12-12T00:08:54.853Z,0.86
2022-12-12T00:11:25.391Z,0.84
2022-12-12T00:13:55.562Z,0.83
2022-12-12T00:16:25.673Z,0.83
2022-12-12T00:18:57.999Z,0.87
2022-12-12T00:21:29.897Z,0.85
2022-12-12T00:23:59.954Z,0.88
2022-12-12T00:26:31.762Z,0.91
2022-12-12T00:29:02.167Z,0.89
2022-12-12T00:31:32.236Z,0.93
2022-12-12T00:34:04.581Z,0.93
2022-12-12T00:36:34.883Z,0.96
2022-12-12T00:39:04.642Z,0.91
2022-12-12T00:41:34.400Z,0.93
2022-12-12T00:44:03.964Z,1.09
2022-12-12T00:46:33.653Z,1.08
2022-12-12T00:49:06.640Z,1.06
2022-12-12T00:51:36.275Z,1.08
2022-12-12T00:54:05.976Z,1.13
2022-12-12T00:56:35.610Z,1.11
2022-12-12T00:59:06.053Z,0.96
2022-12-12T01:01:37.138Z,1.07
2022-12-12T01:04:10.726Z,1.07
2022-12-12T01:06:40.539Z,1.09
2022-12-12T01:09:10.318Z,1.08
2022-12-12T01:11:39.930Z,1.04
2022-12-12T01:14:10.019Z,1.10
2022-12-12T01:16:39.604Z,0.97
2022-12-12T01:19:11.793Z,0.99
2022-12-12T01:21:41.453Z,1.02
2022-12-12T01:24:11.106Z,1.01
2022-12-12T01:26:40.872Z,0.95
2022-12-12T01:29:10.702Z,0.95
2022-12-12T01:31:40.309Z,0.99
2022-12-12T01:34:12.574Z,1.05
2022-12-12T01:36:42.568Z,1.03
2022-12-12T01:39:12.112Z,1.13
2022-12-12T01:41:41.686Z,1.08
2022-12-12T01:44:40.693Z,1.01
2022-12-12T01:47:13.317Z,1.07
2022-12-12T01:49:44.067Z,1.07
2022-12-12T01:52:16.137Z,1.06
2022-12-12T01:54:48.106Z,1.01
2022-12-12T01:57:21.019Z,0.99
2022-12-12T01:59:50.776Z,0.99
2022-12-12T02:02:23.011Z,1.02
2022-12-12T02:04:52.790Z,0.89
2022-12-12T02:07:22.331Z,0.92
2022-12-12T02:09:52.920Z,0.92
2022-12-12T02:12:22.521Z,0.93
2022-12-12T02:14:54.897Z,0.91
2022-12-12T02:18:03.528Z,0.91
2022-12-12T02:20:56.300Z,0.89
2022-12-12T02:23:55.794Z,0.89
2022-12-12T02:26:59.363Z,0.88
2022-12-12T02:29:58.703Z,0.86
2022-12-12T02:32:38.079Z,0.85
2022-12-12T02:35:15.065Z,0.83
2022-12-12T02:37:53.579Z,0.86
2022-12-12T02:40:27.126Z,0.89
2022-12-12T02:43:01.513Z,0.86
2022-12-12T02:45:36.521Z,0.82
2022-12-12T02:48:14.048Z,0.81
2022-12-12T02:50:45.251Z,0.80
2022-12-12T02:53:14.951Z,0.78
2022-12-12T02:55:44.606Z,0.79
2022-12-12T02:58:14.832Z,0.84
2022-12-12T03:01:11.096Z,0.85
2022-12-12T03:04:00.722Z,0.80
2022-12-12T03:06:53.819Z,0.79
2022-12-12T03:09:31.561Z,0.77
2022-12-12T03:12:08.201Z,0.75
2022-12-12T03:14:45.051Z,0.73
2022-12-12T03:17:18.595Z,0.70
2022-12-12T03:19:56.380Z,0.65
2022-12-12T03:22:29.871Z,0.67
2022-12-12T03:25:04.885Z,0.64
2022-12-12T03:27:37.335Z,0.55
2022-12-12T03:30:09.567Z,0.65
2022-12-12T03:32:43.326Z,0.66
2022-12-12T03:35:19.508Z,0.70
2022-12-12T03:37:51.785Z,0.72
2022-12-12T03:40:25.837Z,0.76
2022-12-12T03:43:00.473Z,0.66
2022-12-12T03:45:33.618Z,0.76
2022-12-12T03:48:08.259Z,0.77
2022-12-12T03:50:43.582Z,0.80
2022-12-12T03:53:15.031Z,0.74
2022-12-12T03:55:47.995Z,0.74
2022-12-12T03:58:21.245Z,0.76
2022-12-12T04:00:52.925Z,0.77
2022-12-12T04:03:26.452Z,0.77
2022-12-12T04:06:15.251Z,0.77
2022-12-12T04:09:05.219Z,0.79
2022-12-12T04:12:07.671Z,0.80
2022-12-12T04:14:55.757Z,0.80
2022-12-12T04:17:31.357Z,0.78
2022-12-12T04:20:17.272Z,0.77
2022-12-12T04:23:08.759Z,0.78
2022-12-12T04:26:00.114Z,0.78
2022-12-12T04:28:30.723Z,0.78
2022-12-12T04:31:05.370Z,0.85
2022-12-12T04:33:42.215Z,0.86
2022-12-12T04:36:12.978Z,0.78
2022-12-12T04:38:45.623Z,0.77
2022-12-12T04:41:17.616Z,0.73
2022-12-12T04:43:49.133Z,0.72
2022-12-12T04:46:20.992Z,0.72
2022-12-12T04:48:54.232Z,0.71
2022-12-12T04:51:28.374Z,0.70
2022-12-12T04:54:05.885Z,0.68
2022-12-12T04:56:38.602Z,0.62
2022-12-12T04:59:09.465Z,0.61
2022-12-12T05:01:52.623Z,0.60
2022-12-12T05:04:27.642Z,0.55
2022-12-12T05:07:00.891Z,0.58
2022-12-12T05:09:33.303Z,0.54
2022-12-12T05:12:02.896Z,0.49
2022-12-12T05:14:32.999Z,0.47
2022-12-12T05:17:06.519Z,0.54
2022-12-12T05:19:36.187Z,0.49
2022-12-12T05:22:05.916Z,0.49
2022-12-12T05:24:40.529Z,0.52
2022-12-12T05:27:10.110Z,0.51
2022-12-12T05:29:39.662Z,0.43
2022-12-12T05:32:09.318Z,0.45
2022-12-12T05:34:38.879Z,0.45
2022-12-12T05:37:08.477Z,0.45
2022-12-12T05:39:40.665Z,0.42
2022-12-12T05:42:10.986Z,0.48
2022-12-12T05:44:40.720Z,0.42
2022-12-12T05:47:10.411Z,0.44
2022-12-12T05:49:40.097Z,0.43
2022-12-12T05:52:09.907Z,0.38
2022-12-12T05:54:42.894Z,0.39
2022-12-12T05:57:12.591Z,0.39
2022-12-12T05:59:42.110Z,0.31
2022-12-12T06:02:11.820Z,0.36
2022-12-12T06:04:41.574Z,0.27
2022-12-12T06:07:11.677Z,0.19
2022-12-12T06:09:43.885Z,0.12
2022-12-12T06:12:13.529Z,0.07
2022-12-12T06:14:43.407Z,0.07
2022-12-12T06:17:12.941Z,0.03
2022-12-12T06:19:42.513Z,0.05
2022-12-12T06:22:12.069Z,0.10
2022-12-12T06:24:44.277Z,0.16
2022-12-12T06:27:13.905Z,0.14
2022-12-12T06:29:43.627Z,0.16
2022-12-12T06:32:13.321Z,0.05
2022-12-12T06:34:43.202Z,0.04
2022-12-12T06:37:17.205Z,0.04
2022-12-12T06:39:50.150Z,-0.02
2022-12-12T06:42:19.771Z,-0.07
2022-12-12T06:44:49.373Z,-0.13
2022-12-12T06:47:18.983Z,-0.19
2022-12-12T06:49:48.556Z,-0.22
2022-12-12T06:52:18.266Z,-0.25
2022-12-12T06:54:50.695Z,-0.27
2022-12-12T06:57:20.372Z,-0.30
2022-12-12T06:59:52.901Z,-0.36
2022-12-12T07:02:29.320Z,-0.38
2022-12-12T07:05:00.004Z,-0.39
2022-12-12T07:07:29.609Z,-0.43
2022-12-12T07:10:01.842Z,-0.47
2022-12-12T07:12:31.555Z,-0.49
2022-12-12T07:15:01.137Z,-0.49
2022-12-12T07:17:30.774Z,-0.50
2022-12-12T07:20:00.350Z,-0.54
2022-12-12T07:22:30.032Z,-0.59
2022-12-12T07:25:02.257Z,-0.64
2022-12-12T07:27:31.875Z,-0.65
2022-12-12T07:30:01.438Z,-0.65
2022-12-12T07:32:31.090Z,-0.66
2022-12-12T07:35:00.748Z,-0.66
2022-12-12T07:37:30.429Z,-0.66
2022-12-12T07:40:02.596Z,-0.67
2022-12-12T07:42:32.281Z,-0.56
2022-12-12T07:45:01.849Z,-0.59
2022-12-12T07:47:31.487Z,-0.55
2022-12-12T07:50:01.173Z,-0.60
2022-12-12T07:52:31.019Z,-0.63
2022-12-12T07:55:03.227Z,-0.65
2022-12-12T07:57:33.455Z,-0.64
2022-12-12T08:00:03.111Z,-0.66
2022-12-12T08:02:41.807Z,-0.63
2022-12-12T08:05:12.549Z,-0.63
2022-12-12T08:07:42.554Z,-0.62
2022-12-12T08:10:15.091Z,-0.64
2022-12-12T08:12:44.742Z,-0.65
2022-12-12T08:15:18.640Z,-0.64
2022-12-12T08:17:48.355Z,-0.66
2022-12-12T08:20:19.184Z,-0.66
2022-12-12T08:22:48.766Z,-0.65
2022-12-12T08:25:21.171Z,-0.67
2022-12-12T08:27:50.794Z,-0.68
2022-12-12T08:30:20.503Z,-0.73
2022-12-12T08:32:50.114Z,-0.71
2022-12-12T08:35:19.815Z,-0.73
2022-12-12T08:37:49.398Z,-0.75
2022-12-12T08:40:21.615Z,-0.78
2022-12-12T08:42:51.326Z,-0.78
2022-12-12T08:45:20.925Z,-0.78
2022-12-12T08:47:50.618Z,-0.79
2022-12-12T08:50:20.230Z,-0.81
2022-12-12T08:52:49.750Z,-0.81
2022-12-12T08:55:21.908Z,-0.81
2022-12-12T08:57:51.554Z,-0.82
2022-12-12T09:00:21.632Z,-0.79
2022-12-12T09:02:51.345Z,-0.74
2022-12-12T09:05:21.059Z,-0.76
2022-12-12T09:07:50.707Z,-0.76
2022-12-12T09:10:23.133Z,-0.76
2022-12-12T09:12:52.757Z,-0.77
2022-12-12T09:15:22.771Z,-0.78
2022-12-12T09:17:52.412Z,-0.78
2022-12-12T09:20:22.524Z,-0.79
2022-12-12T09:22:52.158Z,-0.78
2022-12-12T09:25:24.942Z,-0.77
2022-12-12T09:27:54.715Z,-0.76
2022-12-12T09:30:24.332Z,-0.77
2022-12-12T09:32:54.083Z,-0.74
2022-12-12T09:35:23.715Z,-0.74
2022-12-12T09:37:53.323Z,-0.73
2022-12-12T09:40:30.652Z,-0.70
2022-12-12T09:43:03.032Z,-0.71
2022-12-12T09:45:33.285Z,-0.67
2022-12-12T09:48:04.967Z,-0.63
2022-12-12T09:50:37.647Z,-0.62
2022-12-12T09:53:09.621Z,-0.59
2022-12-12T09:55:46.263Z,-0.58
2022-12-12T09:58:21.138Z,-0.55
2022-12-12T10:00:52.356Z,-0.54
2022-12-12T10:03:28.320Z,-0.53
2022-12-12T10:06:35.954Z,-0.49
2022-12-12T10:09:03.801Z,-0.42
2022-12-12T10:11:54.921Z,-0.38
2022-12-12T10:14:30.579Z,-0.37
2022-12-12T10:17:00.899Z,-0.30
2022-12-12T10:19:32.808Z,-0.22
2022-12-12T10:22:05.982Z,-0.18
2022-12-12T10:24:40.535Z,-0.09
2022-12-12T10:27:15.953Z,0.01
2022-12-12T10:29:50.370Z,0.08
2022-12-12T10:32:29.843Z,0.17
2022-12-12T10:35:16.910Z,0.20
2022-12-12T10:37:56.153Z,0.27
2022-12-12T10:40:38.711Z,0.36
2022-12-12T10:43:13.987Z,0.39
2022-12-12T10:45:57.690Z,0.39
2022-12-12T10:48:27.376Z,0.39
2022-12-12T10:51:00.915Z,0.45
2022-12-12T10:53:30.963Z,0.51
2022-12-12T10:56:03.848Z,0.58
2022-12-12T10:58:42.215Z,0.67
2022-12-12T11:01:15.556Z,0.75
2022-12-12T11:03:48.152Z,0.79
2022-12-12T11:06:21.734Z,0.83
2022-12-12T11:08:59.580Z,0.90
2022-12-12T11:11:30.930Z,0.95
2022-12-12T11:14:06.246Z,1.02
2022-12-12T11:16:44.425Z,1.08
2022-12-12T11:19:21.122Z,1.09
2022-12-12T11:21:51.118Z,1.19
2022-12-12T11:24:22.083Z,1.25
2022-12-12T11:26:54.805Z,1.20
2022-12-12T11:29:36.357Z,1.28
2022-12-12T11:32:06.629Z,1.29
2022-12-12T11:34:38.058Z,1.35
2022-12-12T11:37:07.769Z,1.37
2022-12-12T11:39:42.267Z,1.46
2022-12-12T11:42:21.766Z,1.47
2022-12-12T11:45:00.845Z,1.54
2022-12-12T11:47:35.934Z,1.59
2022-12-12T11:50:19.744Z,1.66
2022-12-12T11:52:50.383Z,1.75
2022-12-12T11:55:21.379Z,1.80
2022-12-12T11:58:03.818Z,1.74
2022-12-12T12:00:42.214Z,1.75
2022-12-12T12:03:25.907Z,1.76
2022-12-12T12:06:05.027Z,1.70
2022-12-12T12:08:48.453Z,1.74
2022-12-12T12:11:24.658Z,1.78
2022-12-12T12:14:11.130Z,1.87
2022-12-12T12:16:49.866Z,1.91
2022-12-12T12:19:23.944Z,1.91
2022-12-12T12:22:00.809Z,1.96
2022-12-12T12:24:55.768Z,2.05
2022-12-12T12:27:28.806Z,2.10
2022-12-12T12:30:15.011Z,2.13
2022-12-12T12:32:57.295Z,2.21
2022-12-12T12:35:32.486Z,2.24
2022-12-12T12:38:13.598Z,2.29
2022-12-12T12:40:52.675Z,2.35
2022-12-12T12:43:46.415Z,2.44
2022-12-12T12:46:20.406Z,2.53
2022-12-12T12:48:53.867Z,2.53
2022-12-12T12:51:27.574Z,2.58
2022-12-12T12:54:02.911Z,2.66
2022-12-12T12:56:34.104Z,2.65
2022-12-12T12:59:06.823Z,2.68
2022-12-12T13:01:39.667Z,2.70
2022-12-12T13:04:17.840Z,2.72
2022-12-12T13:06:51.161Z,2.77
2022-12-12T13:09:36.059Z,2.76
2022-12-12T13:12:08.339Z,2.80
2022-12-12T13:14:42.679Z,2.83
2022-12-12T13:17:19.519Z,2.89
2022-12-12T13:19:53.567Z,2.89
2022-12-12T13:22:30.875Z,2.91
2022-12-12T13:25:03.916Z,2.86
2022-12-12T13:27:36.587Z,2.85
2022-12-12T13:30:09.746Z,2.85
2022-12-12T13:33:05.733Z,2.87
2022-12-12T13:35:42.517Z,2.87
2022-12-12T13:38:20.508Z,2.95
2022-12-12T13:40:58.484Z,2.96
2022-12-12T13:43:31.918Z,2.88
2022-12-12T13:46:01.931Z,2.82
2022-12-12T13:48:46.981Z,2.84
2022-12-12T13:51:44.199Z,2.78
2022-12-12T13:55:05.180Z,2.77
2022-12-12T13:57:34.885Z,2.80
2022-12-12T14:00:17.427Z,2.79
2022-12-12T14:02:49.988Z,2.72
2022-12-12T14:05:26.437Z,2.71
2022-12-12T14:08:04.540Z,2.65
2022-12-12T14:10:36.751Z,2.62
2022-12-12T14:13:20.545Z,2.57
2022-12-12T14:15:52.527Z,2.69
2022-12-12T14:18:29.754Z,2.74
2022-12-12T14:21:03.388Z,2.78
2022-12-12T14:23:36.912Z,2.80
2022-12-12T14:26:52.890Z,2.83
2022-12-12T14:29:30.075Z,2.77
2022-12-12T14:32:14.919Z,2.76
2022-12-12T14:34:50.964Z,2.73
2022-12-12T14:37:35.515Z,2.69
2022-12-12T14:40:18.174Z,2.52
2022-12-12T14:43:19.679Z,2.49
2022-12-12T14:45:56.998Z,2.41
2022-12-12T14:48:28.888Z,2.34
2022-12-12T14:51:10.741Z,2.24
2022-12-12T14:53:49.550Z,2.17
2022-12-12T14:56:25.090Z,2.10
2022-12-12T14:59:00.513Z,1.99
2022-12-12T15:01:34.383Z,1.88
2022-12-12T15:04:06.260Z,1.81
2022-12-12T15:06:38.386Z,1.72
2022-12-12T15:09:16.755Z,1.63
2022-12-12T15:11:51.193Z,1.57
2022-12-12T15:14:23.515Z,1.48
2022-12-12T15:16:56.785Z,1.41
2022-12-12T15:19:29.525Z,1.37
2022-12-12T15:21:59.389Z,1.30
2022-12-12T15:24:31.140Z,1.24
2022-12-12T15:27:03.408Z,1.11
2022-12-12T15:29:34.842Z,1.06
2022-12-12T15:32:06.899Z,1.01
2022-12-12T15:34:41.636Z,0.97
2022-12-12T15:37:29.705Z,0.88
2022-12-12T15:40:14.392Z,0.80
2022-12-12T15:42:49.459Z,0.76
2022-12-12T15:45:23.387Z,0.72
2022-12-12T15:47:54.794Z,0.68
2022-12-12T15:50:26.710Z,0.62
2022-12-12T15:53:09.178Z,0.53
2022-12-12T15:55:39.030Z,0.48
2022-12-12T15:58:29.217Z,0.43
2022-12-12T16:01:06.765Z,0.36
2022-12-12T16:03:36.851Z,0.32
2022-12-12T16:06:16.856Z,0.27
2022-12-12T16:08:51.326Z,0.23
2022-12-12T16:11:39.783Z,0.18
2022-12-12T16:14:26.873Z,0.12
2022-12-12T16:16:59.818Z,0.09
2022-12-12T16:19:39.652Z,-0.02
2022-12-12T16:22:10.970Z,-0.04
2022-12-12T16:24:50.000Z,-0.07
2022-12-12T16:27:19.919Z,-0.16
2022-12-12T16:29:52.479Z,-0.23
2022-12-12T16:32:23.075Z,-0.29
2022-12-12T16:34:54.246Z,-0.34
2022-12-12T16:37:24.104Z,-0.37
2022-12-12T16:39:53.644Z,-0.41
2022-12-12T16:42:24.169Z,-0.43
2022-12-12T16:44:56.407Z,-0.46
2022-12-12T16:47:27.094Z,-0.48
2022-12-12T16:49:56.669Z,-0.49
2022-12-12T16:52:26.247Z,-0.48
2022-12-12T16:54:56.173Z,-0.49
2022-12-12T16:57:25.810Z,-0.51
2022-12-12T16:59:57.947Z,-0.53
2022-12-12T17:02:27.964Z,-0.55
2022-12-12T17:04:57.499Z,-0.56
2022-12-12T17:07:27.109Z,-0.57
2022-12-12T17:09:56.692Z,-0.58
2022-12-12T17:12:26.333Z,-0.59
2022-12-12T17:14:58.561Z,-0.59
2022-12-12T17:17:28.210Z,-0.62
2022-12-12T17:19:57.841Z,-0.65
2022-12-12T17:22:27.403Z,-0.71
2022-12-12T17:24:57.009Z,-0.68
2022-12-12T17:27:26.617Z,-0.72
2022-12-12T17:29:58.911Z,-0.80
2022-12-12T17:32:30.241Z,-0.86
2022-12-12T17:34:59.910Z,-0.93
2022-12-12T17:37:29.598Z,-0.95
2022-12-12T17:39:59.292Z,-0.98
2022-12-12T17:42:32.388Z,-0.99
2022-12-12T17:45:04.971Z,-1.02
2022-12-12T17:47:34.776Z,-1.09
2022-12-12T17:50:04.491Z,-1.09
2022-12-12T17:52:34.152Z,-1.19
2022-12-12T17:55:54.972Z,-1.22
2022-12-12T17:57:53.439Z,-1.24
2022-12-12T18:00:25.960Z,-1.26
2022-12-12T18:02:55.610Z,-1.30
2022-12-12T18:05:25.182Z,-1.31
2022-12-12T18:07:54.825Z,-1.34
2022-12-12T18:10:24.449Z,-1.35
2022-12-12T18:12:54.174Z,-1.39
2022-12-12T18:15:26.434Z,-1.43
2022-12-12T18:17:56.085Z,-1.46
2022-12-12T18:20:31.022Z,-1.49
2022-12-12T18:23:01.020Z,-1.50
2022-12-12T18:25:30.741Z,-1.53
2022-12-12T18:28:00.299Z,-1.56
2022-12-12T18:30:33.014Z,-1.55
2022-12-12T18:33:03.353Z,-1.61
2022-12-12T18:35:33.051Z,-1.65
2022-12-12T18:38:03.059Z,-1.70
2022-12-12T18:40:32.753Z,-1.78
2022-12-12T18:43:02.291Z,-1.81
2022-12-12T18:45:34.587Z,-1.81
2022-12-12T18:48:04.310Z,-1.85
2022-12-12T18:50:35.575Z,-1.90
2022-12-12T18:53:06.175Z,-1.91
2022-12-12T18:55:35.792Z,-1.90
2022-12-12T18:58:05.412Z,-1.90
2022-12-12T19:00:40.339Z,-1.95
2022-12-12T19:03:10.355Z,-2.00
2022-12-12T19:05:43.265Z,-2.04
2022-12-12T19:08:14.575Z,-2.05
2022-12-12T19:10:46.510Z,-2.08
2022-12-12T19:13:16.554Z,-2.15
2022-12-12T19:15:48.665Z,-2.18
2022-12-12T19:18:18.266Z,-2.20
2022-12-12T19:20:48.185Z,-2.21
2022-12-12T19:23:17.775Z,-2.24
2022-12-12T19:25:47.356Z,-2.28
2022-12-12T19:28:17.032Z,-2.30
2022-12-12T19:30:49.284Z,-2.34
2022-12-12T19:33:18.902Z,-2.35
2022-12-12T19:35:48.473Z,-2.38
2022-12-12T19:38:24.118Z,-2.42
2022-12-12T19:40:54.388Z,-2.44
2022-12-12T19:43:24.044Z,-2.45
2022-12-12T19:46:04.429Z,-2.47
2022-12-12T19:48:34.175Z,-2.49
2022-12-12T19:51:09.007Z,-2.54
2022-12-12T19:53:40.222Z,-2.56
2022-12-12T19:56:10.401Z,-2.59
2022-12-12T19:58:40.006Z,-2.61
2022-12-12T20:01:15.930Z,-2.64
2022-12-12T20:03:45.594Z,-2.67
2022-12-12T20:06:15.321Z,-2.71
2022-12-12T20:08:44.935Z,-2.75
2022-12-12T20:11:16.891Z,-2.77
2022-12-12T20:13:50.695Z,-2.80
2022-12-12T20:16:24.856Z,-2.84
2022-12-12T20:18:54.890Z,-2.86
2022-12-12T20:24:17.753Z,-2.94
2022-12-12T20:26:47.894Z,-2.98
2022-12-12T20:29:18.044Z,-2.99
2022-12-12T20:31:51.155Z,-3.01
2022-12-12T20:34:22.602Z,-3.05
2022-12-12T20:36:52.375Z,-3.06
2022-12-12T20:39:22.574Z,-3.07
2022-12-12T20:41:53.598Z,-3.08
2022-12-12T20:44:24.215Z,-3.12
2022-12-12T20:46:56.597Z,-3.17
2022-12-12T20:49:28.735Z,-3.13
2022-12-12T20:51:59.316Z,-3.18
2022-12-12T20:54:30.176Z,-3.19
2022-12-12T20:57:01.157Z,-3.19
2022-12-12T20:59:31.080Z,-3.19
2022-12-12T21:02:03.475Z,-3.23
2022-12-12T21:04:33.128Z,-3.24
2022-12-12T21:07:02.748Z,-3.25
2022-12-12T21:09:32.411Z,-3.28
2022-12-12T21:12:02.140Z,-3.25
2022-12-12T21:14:35.013Z,-3.28
2022-12-12T21:17:07.634Z,-3.30
2022-12-12T21:19:37.310Z,-3.36
2022-12-12T21:22:08.335Z,-3.38
2022-12-12T21:24:38.021Z,-3.42
2022-12-12T21:27:08.351Z,-3.45
2022-12-12T21:29:37.997Z,-3.47
2022-12-12T21:32:10.218Z,-3.48
2022-12-12T21:34:41.487Z,-3.51
2022-12-12T21:37:13.036Z,-3.51
2022-12-12T21:39:42.678Z,-3.52
2022-12-12T21:42:12.304Z,-3.55
2022-12-12T21:44:45.721Z,-3.58
2022-12-12T21:47:18.355Z,-3.59
2022-12-12T21:49:48.009Z,-3.63
2022-12-12T21:52:17.563Z,-3.67
2022-12-12T21:54:47.989Z,-3.64
2022-12-12T21:57:21.878Z,-3.70
2022-12-12T21:59:54.177Z,-3.72
2022-12-12T22:02:27.470Z,-3.76
2022-12-12T22:04:57.210Z,-3.76
2022-12-12T22:07:26.835Z,-3.77
2022-12-12T22:10:10.373Z,-3.78
2022-12-12T22:12:41.256Z,-3.77
2022-12-12T22:15:12.111Z,-3.78
2022-12-12T22:17:44.538Z,-3.81
2022-12-12T22:20:14.747Z,-3.87
2022-12-12T22:22:44.319Z,-3.85
2022-12-12T22:25:14.114Z,-3.90
2022-12-12T22:27:43.885Z,-3.91
2022-12-12T22:30:14.790Z,-3.96
2022-12-12T22:32:47.387Z,-3.98
2022-12-12T22:35:17.124Z,-4.00
2022-12-12T22:37:46.656Z,-4.00
2022-12-12T22:40:16.257Z,-4.02
2022-12-12T22:42:45.820Z,-4.04
2022-12-12T22:45:15.794Z,-4.06
2022-12-12T22:47:48.277Z,-4.08
2022-12-12T22:50:17.973Z,-4.11
2022-12-12T22:52:48.340Z,-4.13
2022-12-12T22:55:18.445Z,-4.15
2022-12-12T22:57:49.023Z,-4.17
2022-12-12T23:00:20.368Z,-4.24
2022-12-12T23:02:52.533Z,-4.25
2022-12-12T23:05:23.694Z,-4.26
2022-12-12T23:07:53.640Z,-4.27
2022-12-12T23:10:23.289Z,-4.29
2022-12-12T23:12:52.919Z,-4.31
2022-12-12T23:15:22.554Z,-4.33
2022-12-12T23:17:54.938Z,-4.35
2022-12-12T23:20:24.625Z,-4.36
2022-12-12T23:22:54.183Z,-4.38
2022-12-12T23:25:23.755Z,-4.41
2022-12-12T23:27:53.347Z,-4.44
2022-12-12T23:30:22.991Z,-4.47
2022-12-12T23:32:55.217Z,-4.50
2022-12-12T23:35:25.035Z,-4.51
2022-12-12T23:37:54.610Z,-4.53
2022-12-12T23:40:24.276Z,-4.53
2022-12-12T23:42:53.990Z,-4.56
2022-12-12T23:45:23.573Z,-4.59
2022-12-12T23:47:55.763Z,-4.59
2022-12-12T23:50:25.571Z,-4.61
2022-12-12T23:52:55.156Z,-4.64
2022-12-12T23:55:24.985Z,-4.66
2022-12-12T23:57:54.532Z,-4.65
